createdAt,value
2022-09-28T00:00:15.999Z,1.30
2022-09-28T00:02:44.173Z,1.60
2022-09-28T00:05:13.274Z,1.20
2022-09-28T00:07:42.093Z,1.40
2022-09-28T00:10:12.457Z,1.47
2022-09-28T00:12:40.793Z,2.00
2022-09-28T00:15:09.670Z,1.43
2022-09-28T00:17:37.705Z,2.77
2022-09-28T00:20:06.411Z,2.30
2022-09-28T00:22:34.734Z,1.50
2022-09-28T00:25:02.761Z,1.43
2022-09-28T00:27:32.268Z,1.37
2022-09-28T00:30:00.314Z,1.90
2022-09-28T00:32:28.658Z,1.50
2022-09-28T00:34:56.691Z,1.67
2022-09-28T00:37:24.719Z,3.03
2022-09-28T00:39:52.734Z,1.70
2022-09-28T00:42:22.387Z,1.87
2022-09-28T00:44:57.005Z,1.30
2022-09-28T00:47:45.507Z,1.67
2022-09-28T00:50:18.259Z,1.87
2022-09-28T00:52:50.376Z,1.67
2022-09-28T00:55:21.144Z,2.03
2022-09-28T00:57:51.805Z,1.63
2022-09-28T01:00:22.015Z,2.40
2022-09-28T01:02:50.163Z,1.43
2022-09-28T01:05:18.202Z,1.30
2022-09-28T01:07:46.241Z,1.93
2022-09-28T01:10:14.329Z,2.13
2022-09-28T01:12:42.311Z,1.80
2022-09-28T01:15:10.801Z,1.63
2022-09-28T01:17:49.321Z,1.60
2022-09-28T01:20:43.418Z,1.70
2022-09-28T01:23:33.364Z,3.03
2022-09-28T01:26:17.424Z,1.57
2022-09-28T01:28:45.465Z,1.60
2022-09-28T01:31:14.133Z,1.60
2022-09-28T01:33:43.538Z,1.27
2022-09-28T01:36:12.966Z,1.57
2022-09-28T01:38:42.962Z,1.63
2022-09-28T01:41:12.328Z,1.60
2022-09-28T01:43:41.491Z,2.20
2022-09-28T01:46:12.912Z,2.33
2022-09-28T01:48:43.484Z,1.63
2022-09-28T01:51:14.695Z,1.10
2022-09-28T01:53:44.251Z,2.13
2022-09-28T01:56:14.410Z,1.30
2022-09-28T01:58:44.735Z,1.50
2022-09-28T02:01:15.192Z,2.20
2022-09-28T02:03:45.656Z,2.37
2022-09-28T02:06:16.033Z,1.60
2022-09-28T02:08:51.894Z,2.07
2022-09-28T02:11:21.867Z,1.30
2022-09-28T02:13:50.846Z,1.93
2022-09-28T02:16:21.406Z,1.17
2022-09-28T02:18:49.488Z,1.60
2022-09-28T02:21:18.774Z,1.67
2022-09-28T02:23:50.027Z,1.33
2022-09-28T02:26:18.021Z,1.50
2022-09-28T02:28:47.374Z,1.30
2022-09-28T02:31:15.390Z,1.80
2022-09-28T02:33:44.638Z,1.80
2022-09-28T02:36:12.689Z,1.87
2022-09-28T02:38:40.702Z,2.00
2022-09-28T02:41:14.807Z,3.03
2022-09-28T02:43:50.942Z,1.43
2022-09-28T02:46:24.768Z,1.77
2022-09-28T02:49:17.375Z,1.80
2022-09-28T02:51:52.391Z,1.93
2022-09-28T02:54:37.651Z,1.60
2022-09-28T02:57:13.861Z,1.70
2022-09-28T02:59:47.788Z,1.60
2022-09-28T03:02:21.684Z,1.80
2022-09-28T03:04:53.877Z,3.57
2022-09-28T03:07:24.223Z,1.60
2022-09-28T03:09:55.432Z,2.00
2022-09-28T03:12:23.598Z,1.90
2022-09-28T03:15:06.642Z,1.93
2022-09-28T03:17:34.663Z,1.80
2022-09-28T03:20:03.489Z,1.80
2022-09-28T03:22:31.492Z,2.10
2022-09-28T03:24:59.540Z,1.90
2022-09-28T03:27:27.583Z,3.50
2022-09-28T03:29:56.961Z,1.90
2022-09-28T03:32:24.966Z,2.30
2022-09-28T03:34:55.915Z,2.43
2022-09-28T03:37:23.993Z,2.50
2022-09-28T03:39:52.010Z,2.87
2022-09-28T03:42:20.020Z,2.87
2022-09-28T03:44:48.023Z,3.00
2022-09-28T03:47:18.267Z,3.10
2022-09-28T03:49:46.700Z,2.83
2022-09-28T03:52:19.615Z,3.30
2022-09-28T03:54:49.339Z,2.87
2022-09-28T03:57:17.567Z,2.93
2022-09-28T03:59:45.590Z,2.90
2022-09-28T04:02:13.654Z,2.40
2022-09-28T04:04:43.060Z,2.70
2022-09-28T04:07:11.069Z,2.80
2022-09-28T04:09:39.070Z,2.97
2022-09-28T04:12:07.793Z,10.63
2022-09-28T04:14:35.796Z,2.67
2022-09-28T04:17:04.773Z,2.93
2022-09-28T04:19:32.806Z,2.47
2022-09-28T04:22:02.386Z,2.93
2022-09-28T04:24:30.376Z,3.17
2022-09-28T04:27:18.392Z,3.80
2022-09-28T04:29:45.390Z,2.70
2022-09-28T04:32:13.405Z,3.40
2022-09-28T04:34:44.181Z,3.20
2022-09-28T04:37:15.036Z,3.00
2022-09-28T04:39:46.276Z,3.27
2022-09-28T04:42:16.349Z,3.57
2022-09-28T04:44:49.645Z,2.53
2022-09-28T04:47:17.671Z,3.40
2022-09-28T04:49:49.659Z,3.53
2022-09-28T04:52:19.021Z,3.07
2022-09-28T04:54:47.011Z,3.53
2022-09-28T04:57:15.033Z,3.37
2022-09-28T04:59:43.048Z,3.37
2022-09-28T05:02:12.068Z,3.67
2022-09-28T05:04:40.180Z,3.80
2022-09-28T05:07:08.185Z,3.77
2022-09-28T05:09:38.600Z,4.23
2022-09-28T05:12:06.874Z,4.73
2022-09-28T05:14:34.893Z,3.73
2022-09-28T05:17:03.290Z,4.40
2022-09-28T05:19:31.389Z,4.57
2022-09-28T05:22:00.550Z,4.03
2022-09-28T05:24:28.554Z,3.80
2022-09-28T05:26:57.919Z,4.93
2022-09-28T05:29:32.619Z,7.00
2022-09-28T05:32:02.343Z,7.90
2022-09-28T05:34:30.423Z,5.40
2022-09-28T05:36:58.435Z,5.17
2022-09-28T05:39:26.469Z,5.27
2022-09-28T05:41:54.478Z,5.27
2022-09-28T05:44:24.638Z,4.60
2022-09-28T05:46:54.146Z,5.27
2022-09-28T05:49:22.341Z,5.23
2022-09-28T05:51:50.352Z,4.93
2022-09-28T05:54:18.486Z,6.43
2022-09-28T05:56:46.661Z,6.73
2022-09-28T05:59:14.656Z,4.53
2022-09-28T06:01:44.063Z,5.47
2022-09-28T06:04:12.141Z,5.60
2022-09-28T06:06:40.345Z,6.47
2022-09-28T06:09:08.445Z,6.30
2022-09-28T06:11:36.482Z,5.83
2022-09-28T06:14:05.210Z,5.20
2022-09-28T06:16:35.025Z,4.73
2022-09-28T06:19:04.491Z,5.13
2022-09-28T06:21:32.518Z,6.70
2022-09-28T06:24:00.585Z,6.07
2022-09-28T06:26:28.595Z,6.00
2022-09-28T06:28:56.623Z,5.50
2022-09-28T06:31:25.017Z,6.43
2022-09-28T06:33:53.046Z,6.20
2022-09-28T06:36:22.437Z,5.13
2022-09-28T06:38:50.448Z,5.93
2022-09-28T06:41:18.457Z,5.77
2022-09-28T06:43:47.219Z,8.30
2022-09-28T06:46:15.339Z,5.63
2022-09-28T06:48:44.268Z,6.10
2022-09-28T06:51:12.302Z,7.53
2022-09-28T06:53:42.029Z,5.47
2022-09-28T06:56:10.396Z,5.80
2022-09-28T06:58:38.722Z,6.07
2022-09-28T07:01:06.990Z,6.10
2022-09-28T07:03:35.031Z,5.57
2022-09-28T07:06:03.642Z,6.30
2022-09-28T07:08:31.675Z,6.30
2022-09-28T07:11:01.424Z,6.27
2022-09-28T07:13:49.055Z,6.63
2022-09-28T07:16:19.622Z,6.80
2022-09-28T07:18:49.717Z,7.07
2022-09-28T07:21:27.450Z,7.50
2022-09-28T07:23:57.511Z,6.60
2022-09-28T07:26:26.982Z,6.27
2022-09-28T07:28:55.971Z,6.60
2022-09-28T07:31:26.323Z,6.87
2022-09-28T07:33:56.495Z,6.30
2022-09-28T07:36:24.540Z,8.37
2022-09-28T07:38:52.563Z,7.73
2022-09-28T07:41:32.184Z,7.20
2022-09-28T07:44:06.066Z,6.73
2022-09-28T07:46:34.487Z,7.07
2022-09-28T07:49:08.318Z,7.20
2022-09-28T07:51:44.839Z,7.50
2022-09-28T07:54:12.878Z,7.10
2022-09-28T07:56:40.873Z,7.27
2022-09-28T07:59:10.408Z,7.53
2022-09-28T08:01:43.934Z,8.83
2022-09-28T08:04:12.146Z,7.83
2022-09-28T08:06:40.588Z,7.67
2022-09-28T08:09:08.643Z,7.27
2022-09-28T08:11:36.676Z,11.30
2022-09-28T08:14:04.723Z,8.83
2022-09-28T08:16:34.181Z,8.63
2022-09-28T08:19:02.289Z,9.97
2022-09-28T08:21:47.518Z,8.43
2022-09-28T08:24:16.128Z,8.20
2022-09-28T08:26:44.188Z,10.30
2022-09-28T08:29:12.213Z,8.00
2022-09-28T08:31:41.602Z,9.00
2022-09-28T08:34:09.763Z,9.93
2022-09-28T08:36:38.933Z,10.17
2022-09-28T08:39:07.114Z,7.80
2022-09-28T08:41:41.585Z,9.70
2022-09-28T08:44:17.271Z,8.93
2022-09-28T08:46:47.818Z,9.80
2022-09-28T08:49:30.741Z,8.70
2022-09-28T08:52:00.710Z,8.80
2022-09-28T08:54:32.872Z,9.50
2022-09-28T08:57:02.507Z,8.63
2022-09-28T08:59:32.856Z,8.57
2022-09-28T09:02:04.787Z,8.93
2022-09-28T09:04:33.249Z,9.23
2022-09-28T09:07:12.336Z,8.60
2022-09-28T09:09:47.252Z,8.00
2022-09-28T09:12:19.266Z,8.40
2022-09-28T09:15:21.555Z,8.70
2022-09-28T09:17:58.269Z,8.43
2022-09-28T09:20:31.092Z,8.33
2022-09-28T09:23:00.568Z,8.70
2022-09-28T09:25:29.653Z,10.70
2022-09-28T09:28:08.653Z,9.00
2022-09-28T09:30:42.191Z,8.20
2022-09-28T09:33:27.587Z,8.93
2022-09-28T09:36:02.154Z,8.00
2022-09-28T09:38:41.879Z,7.90
2022-09-28T09:41:17.719Z,8.40
2022-09-28T09:43:59.013Z,8.97
2022-09-28T09:46:35.811Z,8.00
2022-09-28T09:49:08.083Z,8.00
2022-09-28T09:51:40.064Z,8.57
2022-09-28T09:54:11.581Z,7.93
2022-09-28T09:56:45.951Z,7.33
2022-09-28T09:59:16.295Z,7.27
2022-09-28T10:01:44.358Z,7.60
2022-09-28T10:04:17.042Z,7.53
2022-09-28T10:06:45.100Z,7.10
2022-09-28T10:09:15.948Z,11.67
2022-09-28T10:11:44.486Z,6.77
2022-09-28T10:14:14.425Z,7.20
2022-09-28T10:16:43.069Z,6.43
2022-09-28T10:19:11.647Z,6.80
2022-09-28T10:21:41.716Z,6.13
2022-09-28T10:24:13.144Z,6.57
2022-09-28T10:26:41.807Z,6.37
2022-09-28T10:29:14.706Z,6.70
2022-09-28T10:31:43.372Z,6.90
2022-09-28T10:34:14.208Z,6.30
2022-09-28T10:36:52.226Z,6.80
2022-09-28T10:39:29.962Z,5.77
2022-09-28T10:41:59.819Z,6.43
2022-09-28T10:44:27.827Z,5.53
2022-09-28T10:47:00.009Z,5.97
2022-09-28T10:49:28.616Z,6.00
2022-09-28T10:52:03.503Z,5.70
2022-09-28T10:54:32.267Z,7.90
2022-09-28T10:57:00.396Z,5.40
2022-09-28T10:59:39.666Z,5.73
2022-09-28T11:02:18.308Z,5.90
2022-09-28T11:04:51.750Z,5.30
2022-09-28T11:07:21.995Z,5.20
2022-09-28T11:09:50.276Z,6.20
2022-09-28T11:12:19.764Z,5.30
2022-09-28T11:14:52.649Z,5.40
2022-09-28T11:17:27.336Z,5.10
2022-09-28T11:19:55.426Z,5.40
2022-09-28T11:22:28.919Z,4.67
2022-09-28T11:25:23.725Z,4.53
2022-09-28T11:27:59.350Z,4.83
2022-09-28T11:30:28.917Z,4.63
2022-09-28T11:32:58.342Z,5.27
2022-09-28T11:35:29.398Z,5.33
2022-09-28T11:38:17.851Z,5.17
2022-09-28T11:40:50.368Z,4.47
2022-09-28T11:43:22.272Z,4.97
2022-09-28T11:45:53.058Z,4.50
2022-09-28T11:48:23.988Z,4.63
2022-09-28T11:50:53.195Z,4.30
2022-09-28T11:53:25.132Z,4.47
2022-09-28T11:55:56.278Z,5.37
2022-09-28T11:58:27.540Z,4.40
2022-09-28T12:00:58.024Z,4.60
2022-09-28T12:03:28.249Z,4.43
2022-09-28T12:05:58.112Z,5.40
2022-09-28T12:08:28.807Z,4.43
2022-09-28T12:10:59.251Z,4.70
2022-09-28T12:13:35.488Z,4.90
2022-09-28T12:16:27.572Z,4.67
2022-09-28T12:18:54.734Z,5.20
2022-09-28T12:21:34.537Z,4.23
2022-09-28T12:24:07.796Z,4.90
2022-09-28T12:26:40.020Z,4.17
2022-09-28T12:29:11.715Z,4.33
2022-09-28T12:31:56.320Z,4.27
2022-09-28T12:34:24.366Z,4.80
2022-09-28T12:37:01.009Z,4.53
2022-09-28T12:39:57.078Z,4.50
2022-09-28T12:42:34.475Z,4.57
2022-09-28T12:45:18.860Z,4.93
2022-09-28T12:47:57.948Z,4.83
2022-09-28T12:50:38.497Z,4.30
2022-09-28T12:53:46.704Z,4.43
2022-09-28T12:56:21.555Z,4.07
2022-09-28T12:59:00.099Z,4.40
2022-09-28T13:01:43.501Z,4.37
2022-09-28T13:04:31.253Z,6.60
2022-09-28T13:07:03.739Z,3.90
2022-09-28T13:09:33.978Z,4.07
2022-09-28T13:12:11.585Z,5.30
2022-09-28T13:15:06.066Z,4.07
2022-09-28T13:17:40.813Z,4.27
2022-09-28T13:20:18.909Z,4.20
2022-09-28T13:22:49.795Z,3.90
2022-09-28T13:25:19.000Z,4.90
2022-09-28T13:27:51.735Z,4.07
2022-09-28T13:30:19.943Z,3.70
2022-09-28T13:32:47.947Z,3.50
2022-09-28T13:35:16.098Z,3.90
2022-09-28T13:37:44.092Z,4.53
2022-09-28T13:40:12.171Z,4.00
2022-09-28T13:43:02.636Z,3.70
2022-09-28T13:45:53.810Z,4.73
2022-09-28T13:48:22.851Z,4.20
2022-09-28T13:51:14.166Z,3.37
2022-09-28T13:53:49.439Z,4.00
2022-09-28T13:56:28.290Z,5.10
2022-09-28T13:58:59.323Z,3.87
2022-09-28T14:01:29.133Z,3.87
2022-09-28T14:04:14.389Z,3.67
2022-09-28T14:06:49.440Z,3.73
2022-09-28T14:09:40.955Z,3.60
2022-09-28T14:12:46.303Z,3.57
2022-09-28T14:19:07.088Z,3.43
2022-09-28T14:22:09.226Z,3.40
2022-09-28T14:24:51.987Z,4.07
2022-09-28T14:27:30.001Z,3.60
2022-09-28T14:30:07.978Z,3.67
2022-09-28T14:32:37.513Z,3.87
2022-09-28T14:35:07.579Z,3.80
2022-09-28T14:37:55.392Z,3.80
2022-09-28T14:40:48.695Z,3.60
2022-09-28T14:43:36.072Z,4.07
2022-09-28T14:46:28.448Z,3.80
2022-09-28T14:48:57.187Z,3.20
2022-09-28T14:52:07.485Z,3.57
2022-09-28T14:54:57.525Z,3.40
2022-09-28T14:57:26.587Z,3.70
2022-09-28T14:59:54.605Z,3.73
2022-09-28T15:02:26.554Z,3.50
2022-09-28T15:04:56.390Z,3.30
2022-09-28T15:07:27.137Z,3.10
2022-09-28T15:09:57.146Z,3.43
2022-09-28T15:12:27.037Z,3.53
2022-09-28T15:14:56.395Z,4.90
2022-09-28T15:17:25.839Z,3.30
2022-09-28T15:20:21.815Z,4.13
2022-09-28T15:22:50.854Z,3.40
2022-09-28T15:25:21.062Z,3.30
2022-09-28T15:27:54.149Z,3.47
2022-09-28T15:30:27.529Z,3.53
2022-09-28T15:32:56.959Z,3.23
2022-09-28T15:35:24.998Z,3.33
2022-09-28T15:37:56.272Z,5.20
2022-09-28T15:40:30.112Z,5.67
2022-09-28T15:42:59.443Z,3.30
2022-09-28T15:45:28.726Z,2.73
2022-09-28T15:47:58.611Z,3.03
2022-09-28T15:50:28.130Z,3.00
2022-09-28T15:52:57.515Z,3.60
2022-09-28T15:55:29.167Z,3.20
2022-09-28T15:58:07.931Z,3.87
2022-09-28T16:00:35.983Z,3.47
2022-09-28T16:03:18.793Z,3.57
2022-09-28T16:05:47.858Z,3.77
2022-09-28T16:08:21.411Z,3.20
2022-09-28T16:11:09.140Z,3.57
2022-09-28T16:13:37.165Z,3.20
2022-09-28T16:16:05.306Z,3.40
2022-09-28T16:18:35.688Z,2.57
2022-09-28T16:21:37.586Z,3.20
2022-09-28T16:24:05.758Z,3.20
2022-09-28T16:26:36.058Z,2.90
2022-09-28T16:29:07.945Z,4.00
2022-09-28T16:31:37.213Z,3.30
2022-09-28T16:34:19.807Z,2.93
2022-09-28T16:36:48.948Z,3.30
2022-09-28T16:39:17.466Z,2.73
2022-09-28T16:41:48.098Z,2.60
2022-09-28T16:44:17.532Z,3.13
2022-09-28T16:46:45.665Z,3.00
2022-09-28T16:49:18.710Z,3.30
2022-09-28T16:51:47.546Z,2.73
2022-09-28T16:54:38.772Z,3.20
2022-09-28T16:57:09.237Z,2.40
2022-09-28T16:59:38.894Z,2.63
2022-09-28T17:02:45.204Z,3.00
2022-09-28T17:05:09.012Z,3.00
2022-09-28T17:07:37.025Z,2.97
2022-09-28T17:10:10.807Z,2.63
2022-09-28T17:12:40.312Z,3.03
2022-09-28T17:15:09.133Z,2.47
2022-09-28T17:17:39.207Z,2.37
2022-09-28T17:20:15.772Z,2.30
2022-09-28T17:22:43.819Z,3.67
2022-09-28T17:25:12.829Z,2.60
2022-09-28T17:27:44.094Z,2.90
2022-09-28T17:30:13.340Z,2.97
2022-09-28T17:32:44.912Z,2.80
2022-09-28T17:35:24.123Z,3.40
2022-09-28T17:37:56.636Z,2.50
2022-09-28T17:40:25.855Z,2.50
2022-09-28T17:42:56.478Z,2.27
2022-09-28T17:45:28.212Z,2.53
2022-09-28T17:47:56.542Z,3.07
2022-09-28T17:50:25.571Z,2.23
2022-09-28T17:52:57.769Z,2.67
2022-09-28T17:55:28.580Z,3.03
2022-09-28T17:57:58.153Z,2.30
2022-09-28T18:00:27.539Z,2.53
2022-09-28T18:02:56.457Z,2.50
2022-09-28T18:05:25.177Z,2.80
2022-09-28T18:07:53.252Z,2.43
2022-09-28T18:10:22.830Z,2.40
2022-09-28T18:12:50.962Z,1.93
2022-09-28T18:15:20.582Z,2.47
2022-09-28T18:17:48.654Z,2.00
2022-09-28T18:20:16.710Z,2.60
2022-09-28T18:22:44.759Z,2.10
2022-09-28T18:25:12.848Z,2.20
2022-09-28T18:27:40.901Z,4.90
2022-09-28T18:30:09.655Z,2.07
2022-09-28T18:32:39.083Z,2.37
2022-09-28T18:35:08.655Z,2.20
2022-09-28T18:37:37.414Z,2.37
2022-09-28T18:40:06.070Z,2.20
2022-09-28T18:42:34.850Z,2.40
2022-09-28T18:45:02.912Z,1.90
2022-09-28T18:47:30.994Z,2.40
2022-09-28T18:50:00.708Z,2.37
2022-09-28T18:52:28.813Z,2.30
2022-09-28T18:54:56.823Z,2.60
2022-09-28T18:57:24.884Z,3.83
2022-09-28T18:59:52.909Z,2.20
2022-09-28T19:02:21.072Z,2.13
2022-09-28T19:04:49.236Z,3.00
2022-09-28T19:07:18.635Z,2.33
2022-09-28T19:09:46.703Z,2.90
2022-09-28T19:12:14.884Z,2.17
2022-09-28T19:14:43.100Z,1.80
2022-09-28T19:17:11.951Z,2.37
2022-09-28T19:19:42.750Z,2.60
2022-09-28T19:22:10.845Z,1.87
2022-09-28T19:24:40.508Z,2.10
2022-09-28T19:27:08.577Z,2.20
2022-09-28T19:29:36.633Z,2.23
2022-09-28T19:32:04.680Z,1.80
2022-09-28T19:34:32.752Z,2.30
2022-09-28T19:37:03.851Z,2.87
2022-09-28T19:39:31.964Z,3.40
2022-09-28T19:42:03.823Z,2.30
2022-09-28T19:44:32.377Z,2.43
2022-09-28T19:47:04.160Z,2.37
2022-09-28T19:49:36.809Z,3.13
2022-09-28T19:52:20.768Z,3.27
2022-09-28T19:54:55.768Z,2.33
2022-09-28T19:57:25.970Z,2.90
2022-09-28T19:59:57.849Z,1.87
2022-09-28T20:02:29.159Z,2.20
2022-09-28T20:04:57.314Z,2.60
2022-09-28T20:07:25.344Z,2.03
2022-09-28T20:09:53.380Z,4.77
2022-09-28T20:12:22.306Z,2.00
2022-09-28T20:14:51.736Z,2.27
2022-09-28T20:17:21.738Z,2.27
2022-09-28T20:19:51.694Z,9.93
2022-09-28T20:22:20.091Z,2.40
2022-09-28T20:24:48.175Z,2.60
2022-09-28T20:27:16.241Z,2.33
2022-09-28T20:29:44.297Z,2.57
2022-09-28T20:32:14.241Z,2.63
2022-09-28T20:34:42.288Z,2.13
2022-09-28T20:37:12.479Z,1.77
2022-09-28T20:39:45.176Z,2.33
2022-09-28T20:42:15.118Z,1.97
2022-09-28T20:44:43.208Z,3.27
2022-09-28T20:47:11.258Z,2.50
2022-09-28T20:49:40.703Z,2.10
2022-09-28T20:52:08.758Z,2.00
2022-09-28T20:54:38.856Z,2.57
2022-09-28T20:57:17.277Z,2.40
2022-09-28T20:59:54.574Z,2.30
2022-09-28T21:02:23.537Z,2.10
2022-09-28T21:04:53.014Z,2.20
2022-09-28T21:07:22.199Z,2.53
2022-09-28T21:09:50.538Z,2.23
2022-09-28T21:12:19.172Z,2.60
2022-09-28T21:14:51.181Z,2.33
2022-09-28T21:17:19.250Z,2.70
2022-09-28T21:19:47.312Z,2.20
2022-09-28T21:22:16.761Z,2.70
2022-09-28T21:24:50.485Z,2.30
2022-09-28T21:27:20.497Z,2.23
2022-09-28T21:29:48.545Z,2.20
2022-09-28T21:32:17.059Z,3.73
2022-09-28T21:34:45.114Z,1.83
2022-09-28T21:37:13.247Z,2.63
2022-09-28T21:39:42.757Z,2.00
2022-09-28T21:42:10.812Z,1.73
2022-09-28T21:44:38.883Z,1.90
2022-09-28T21:47:06.923Z,3.70
2022-09-28T21:49:38.510Z,1.93
2022-09-28T21:52:06.593Z,2.23
2022-09-28T21:54:37.263Z,3.57
2022-09-28T21:57:06.954Z,2.20
2022-09-28T21:59:38.527Z,2.13
2022-09-28T22:02:07.331Z,1.87
2022-09-28T22:04:35.376Z,1.80
2022-09-28T22:07:03.432Z,2.63
2022-09-28T22:09:31.484Z,2.30
2022-09-28T22:11:59.597Z,2.13
2022-09-28T22:14:29.023Z,2.40
2022-09-28T22:16:57.092Z,1.80
2022-09-28T22:19:25.153Z,1.90
2022-09-28T22:21:56.560Z,4.67
2022-09-28T22:24:24.809Z,2.20
2022-09-28T22:26:52.856Z,2.60
2022-09-28T22:29:21.642Z,2.50
2022-09-28T22:31:51.098Z,2.10
2022-09-28T22:34:19.260Z,2.00
2022-09-28T22:36:47.435Z,2.50
2022-09-28T22:39:15.758Z,2.50
2022-09-28T22:41:43.891Z,2.40
2022-09-28T22:44:11.973Z,2.07
2022-09-28T22:46:40.118Z,1.87
2022-09-28T22:49:11.745Z,2.30
2022-09-28T22:51:39.844Z,2.27
2022-09-28T22:54:07.971Z,2.20
2022-09-28T22:56:36.014Z,2.33
2022-09-28T22:59:04.223Z,2.47
2022-09-28T23:01:32.339Z,2.17
2022-09-28T23:04:00.915Z,4.40
2022-09-28T23:06:30.929Z,1.90
2022-09-28T23:08:59.005Z,2.30
2022-09-28T23:11:27.168Z,2.20
2022-09-28T23:13:55.952Z,2.23
2022-09-28T23:16:25.660Z,1.87
2022-09-28T23:18:56.818Z,2.10
2022-09-28T23:21:27.724Z,2.00
2022-09-28T23:23:58.001Z,2.90
2022-09-28T23:26:26.692Z,2.47
2022-09-28T23:28:55.435Z,2.47
2022-09-28T23:31:24.704Z,2.20
2022-09-28T23:33:52.895Z,2.57
2022-09-28T23:36:20.958Z,2.57
2022-09-28T23:38:49.010Z,2.47
2022-09-28T23:41:19.067Z,2.30
2022-09-28T23:43:47.110Z,2.90
2022-09-28T23:46:20.349Z,2.53
2022-09-28T23:48:48.915Z,2.53
2022-09-28T23:51:16.974Z,2.73
2022-09-28T23:53:45.047Z,3.07
2022-09-28T23:56:14.394Z,2.67
2022-09-28T23:58:43.845Z,3.10
